Latest Weather Observations for Mount Buller

IDV60801

Issued at 7:03 am EST Friday 18 August 2017 (issued every 30 minutes, with the page automatically refreshed every 10 minutes)

About weather observations | Map of weather stations | Latest weather observations for VIC | Other Formats
Station Details ID: 083024 Name: MOUNT BULLER Lat: -37.15 Lon: 146.44 Height: 1707.0 m
Data from the previous 72 hours. | See also: Recent months at Mount Buller
Date/Time
EST
Temp
°C
App
Temp
°C
Dew
Point
°C
Rel
Hum
%
Delta-T
°C
Wind Press
QNH
hPa
Press
MSL
hPa
Rain since
9am
mm
Dir  Spd
km/h
Gust
km/h
Spd
kts
Gust
kts
18/07:00am -4.0 -12.6 -4.1 99 -0.1 WNW 32 59 17 32 - - 29.4
18/06:30am -3.9 -11.7 -4.0 99 -0.1 WNW 28 61 15 33 - - 29.2
18/06:06am -3.8 -10.1 -3.9 99 -0.1 NW 20 50 11 27 - - 29.0
18/06:00am -3.9 -11.3 -4.0 99 -0.1 WNW 26 43 14 23 - - 29.0
18/05:30am -4.0 -13.2 -4.1 99 -0.1 WNW 35 59 19 32 - - 28.6
18/05:09am -3.7 -11.5 -3.8 99 -0.1 WNW 28 59 15 32 - - 28.6
18/05:00am -3.6 -8.9 -3.7 99 -0.1 WNW 15 37 8 20 - - 28.4
18/04:38am -3.9 -11.7 -4.0 99 -0.1 WNW 28 48 15 26 - - 28.2
18/04:30am -3.7 -10.0 -3.8 99 -0.1 WNW 20 41 11 22 - - 28.0
18/04:00am -3.7 -12.3 -3.8 99 -0.1 WNW 32 61 17 33 - - 27.8
18/03:56am -3.5 -11.3 -3.6 99 -0.1 WNW 28 61 15 33 - - 27.8
18/03:30am -3.4 -10.4 -3.5 99 -0.1 WNW 24 41 13 22 - - 27.4
18/03:00am -3.4 -11.2 -3.5 99 -0.1 WNW 28 56 15 30 - - 27.0
18/02:30am -3.5 -12.0 -3.6 99 -0.1 WNW 32 57 17 31 - - 26.6
18/02:01am -3.1 -11.8 -3.2 99 -0.1 WNW 33 56 18 30 - - 26.2
18/02:00am -3.1 -11.8 -3.2 99 -0.1 WNW 33 56 18 30 - - 26.2
18/01:32am -2.8 -8.8 -2.9 99 -0.1 WNW 19 69 10 37 - - 25.4
18/01:30am -2.8 -8.0 -2.9 99 -0.1 NW 15 50 8 27 - - 25.2
18/01:00am -2.7 -7.5 -2.8 99 -0.1 NW 13 41 7 22 - - 23.6
18/12:30am -2.6 -6.1 -2.7 99 -0.1 NW 6 24 3 13 - - 23.2
18/12:00am -2.4 -6.4 -2.5 99 -0.1 NW 9 37 5 20 - - 22.8
 
Date/Time
EST
Temp
°C
App
Temp
°C
Dew
Point
°C
Rel
Hum
%
Delta-T
°C
Wind Press
QNH
hPa
Press
MSL
hPa
Rain since
9am
mm
Dir  Spd
km/h
Gust
km/h
Spd
kts
Gust
kts
17/11:30pm -2.7 -11.7 -2.8 99 -0.1 WNW 35 56 19 30 - - 22.4
17/11:00pm -2.3 -12.0 -2.4 99 -0.1 WNW 39 67 21 36 - - 22.4
17/10:33pm -2.1 -11.0 -2.2 99 -0.1 WNW 35 76 19 41 - - 22.4
17/10:30pm -2.1 -10.7 -2.2 99 -0.1 WNW 33 54 18 29 - - 22.2
17/10:02pm -2.3 -7.1 -2.4 99 -0.1 WNW 13 52 7 28 - - 22.2
17/10:00pm -2.4 -6.4 -2.5 99 -0.1 NW 9 32 5 17 - - 22.2
17/09:30pm -2.2 -6.2 -2.3 99 -0.1 NNW 9 30 5 16 - - 22.0
17/09:09pm -2.3 -8.4 -2.4 99 -0.1 NNW 20 48 11 26 - - 22.0
17/09:00pm -2.2 -5.8 -2.3 99 -0.1 NNW 7 37 4 20 - - 22.0
17/08:30pm -2.2 -8.1 -2.3 99 -0.1 NW 19 50 10 27 - - 21.6
17/08:00pm -2.1 -9.3 -2.2 99 -0.1 NW 26 56 14 30 - - 20.6
17/07:30pm -2.2 -11.1 -2.3 99 -0.1 W 35 57 19 31 - - 19.8
17/07:19pm -1.7 -7.5 -1.8 99 0.0 WNW 19 65 10 35 - - 19.6
17/07:00pm -1.6 -5.0 -1.7 99 0.0 NW 6 33 3 18 - - 18.6
17/06:30pm -1.7 -7.7 -1.8 99 0.0 N 20 48 11 26 - - 18.0
17/06:00pm -1.4 -5.7 -1.5 99 0.0 NW 11 43 6 23 - - 17.2
17/05:30pm -1.4 -4.7 -1.5 99 0.0 WNW 6 35 3 19 - - 15.8
17/05:00pm -1.4 -5.7 -1.5 99 0.0 WNW 11 41 6 22 - - 14.8
17/04:30pm -1.4 -6.8 -1.5 99 0.0 NNW 17 39 9 21 - - 14.0
17/04:00pm -1.0 -6.7 -1.1 99 0.0 NW 19 41 10 22 - - 13.6
17/03:39pm -0.8 -9.0 -0.9 99 0.0 WNW 32 69 17 37 - - 12.8
17/03:30pm -0.9 -7.6 -1.0 99 0.0 NW 24 83 13 45 - - 12.0
17/03:29pm -0.8 -7.1 -0.9 99 0.0 NW 22 83 12 45 - - 11.8
17/03:10pm -0.6 -6.5 -0.7 99 0.0 WNW 20 50 11 27 - - 11.2
17/03:00pm -0.5 -4.7 -0.6 99 0.0 NW 11 28 6 15 - - 11.0
17/02:36pm -0.6 -6.3 -0.7 99 0.0 NW 19 67 10 36 - - 10.6
17/02:30pm -0.6 -7.6 -0.7 99 0.0 WNW 26 63 14 34 - - 10.2
17/02:24pm -0.6 -7.2 -0.7 99 0.0 WNW 24 63 13 34 - - 10.2
17/02:00pm -0.5 -4.7 -0.6 99 0.0 WNW 11 33 6 18 - - 9.8
17/01:30pm -0.6 -6.5 -0.7 99 0.0 NNW 20 50 11 27 - - 9.8
17/01:00pm -0.4 -6.3 -0.5 99 0.0 N 20 43 11 23 - - 8.8
17/12:30pm -0.6 -5.2 -0.7 99 0.0 NW 13 41 7 22 - - 6.8
17/12:00pm -0.8 -4.6 -0.9 99 0.0 NW 9 32 5 17 - - 5.6
17/11:33am -0.5 -8.3 -0.6 99 0.0 N 30 57 16 31 - - 3.4
17/11:30am -0.4 -8.2 -0.5 99 0.0 N 30 65 16 35 - - 3.4
17/11:00am -0.6 -11.4 -0.7 99 0.0 N 46 83 25 45 - - 1.4
17/10:30am -0.6 -12.2 -0.7 99 0.0 N 50 74 27 40 - - 0.4
17/10:00am -0.7 -10.2 -0.8 99 0.0 N 39 76 21 41 - - 0.2
17/09:30am -0.8 -12.4 -0.9 99 0.0 N 50 74 27 40 - - 0.2
17/09:00am -0.2 -11.0 -0.3 99 0.0 NNW 46 89 25 48 - - 44.2
17/08:59am -0.2 -10.6 -0.3 99 0.0 NNW 44 89 24 48 - - 44.0
17/08:30am -0.1 -9.5 -0.2 99 0.0 NNW 39 70 21 38 - - 43.0
17/08:00am -0.2 -8.9 -0.3 99 0.0 N 35 65 19 35 - - 41.0
17/07:30am -0.3 -7.7 -0.4 99 0.0 N 28 61 15 33 - - 39.6
17/07:00am -0.2 -9.3 -0.3 99 0.0 N 37 69 20 37 - - 38.4
17/06:36am -0.2 -6.4 -0.3 99 0.0 NNW 22 54 12 29 - - 38.0
17/06:30am -0.2 -5.1 -0.3 99 0.0 NNW 15 35 8 19 - - 37.4
17/06:00am -0.2 -3.4 -0.3 99 0.0 NNW 6 32 3 17 - - 36.2
17/05:30am -0.1 -5.3 -0.2 99 0.0 NNW 17 39 9 21 - - 35.6
17/05:00am -0.1 -5.3 -0.2 99 0.0 N 17 43 9 23 - - 33.6
17/04:30am -0.3 -4.8 -0.4 99 0.0 WNW 13 52 7 28 - - 32.0
17/04:00am -0.3 -4.4 -0.4 99 0.0 NW 11 37 6 20 - - 30.0
17/03:30am -0.1 -4.2 -0.2 99 0.0 NW 11 48 6 26 - - 28.8
17/03:00am 0.0 -4.1 -0.1 99 0.0 SE 11 52 6 28 - - 26.2
17/02:30am 0.0 -8.6 -0.1 99 0.0 N 35 82 19 44 - - 24.6
17/02:00am 0.1 -9.7 0.0 99 0.0 N 41 72 22 39 - - 23.6
17/01:30am 0.0 -10.2 -0.1 99 0.0 N 43 78 23 42 - - 23.4
17/01:00am 0.0 -10.7 -0.1 99 0.0 N 46 78 25 42 - - 23.0
17/12:30am 0.1 -10.6 0.0 99 0.0 N 46 76 25 41 - - 22.8
17/12:22am 0.1 -9.3 0.0 99 0.0 N 39 72 21 39 - - 22.8
17/12:00am 0.1 -7.6 0.0 99 0.0 NNW 30 56 16 30 - - 22.6
 
Date/Time
EST
Temp
°C
App
Temp
°C
Dew
Point
°C
Rel
Hum
%
Delta-T
°C
Wind Press
QNH
hPa
Press
MSL
hPa
Rain since
9am
mm
Dir  Spd
km/h
Gust
km/h
Spd
kts
Gust
kts
16/11:30pm 0.1 -12.1 0.0 99 0.0 N 54 83 29 45 - - 21.0
16/11:00pm 0.1 -10.6 0.0 99 0.0 N 46 76 25 41 - - 20.2
16/10:54pm 0.0 -9.4 -0.1 99 0.0 N 39 76 21 41 - - 19.8
16/10:42pm 0.0 -6.6 -0.1 99 0.0 NNW 24 50 13 27 - - 19.2
16/10:30pm 0.0 -7.7 -0.1 99 0.0 N 30 46 16 25 - - 18.4
16/10:22pm 0.1 -5.7 0.0 99 0.0 N 20 46 11 25 - - 18.2
16/10:00pm 0.1 -4.4 0.0 99 0.0 WNW 13 44 7 24 - - 16.8
16/09:30pm 0.0 -3.3 -0.1 99 0.0 NW 7 43 4 23 - - 14.4
16/09:15pm 0.0 -9.0 -0.1 99 0.0 NNW 37 69 20 37 - - 13.6
16/09:00pm 0.2 -10.1 0.1 99 0.0 NNW 44 76 24 41 - - 13.2
16/08:57pm 0.2 -9.6 0.1 99 0.0 N 41 76 22 41 - - 13.0
16/08:37pm 0.1 -7.2 0.0 99 0.0 N 28 57 15 31 - - 13.0
16/08:30pm 0.1 -6.1 0.0 99 0.0 NNW 22 48 12 26 - - 13.0
16/08:00pm 0.0 -8.1 -0.1 99 0.0 WNW 32 65 17 35 - - 12.4
16/07:52pm 0.0 -7.3 -0.1 99 0.0 WNW 28 56 15 30 - - 12.0
16/07:30pm 0.0 -5.2 -0.1 99 0.0 NNW 17 61 9 33 - - 11.0
16/07:00pm 0.0 -5.8 -0.1 99 0.0 N 20 54 11 29 - - 10.8
16/06:30pm 0.0 -8.6 -0.1 99 0.0 WNW 35 85 19 46 - - 9.0
16/06:29pm 0.0 -8.6 -0.1 99 0.0 WNW 35 85 19 46 - - 9.0
16/06:09pm 0.1 -5.7 0.0 99 0.0 WNW 20 67 11 36 - - 7.6
16/06:00pm 0.1 -5.1 0.0 99 0.0 NW 17 48 9 26 - - 7.2
16/05:37pm 0.0 -5.2 -0.1 99 0.0 NNW 17 46 9 25 - - 5.8
16/05:30pm 0.0 -4.5 -0.1 99 0.0 NW 13 41 7 22 - - 5.2
16/05:00pm 0.0 -8.1 -0.1 99 0.0 N 32 63 17 34 - - 3.6
16/04:44pm 0.0 -9.0 -0.1 99 0.0 N 37 69 20 37 - - 2.4
16/04:38pm 0.0 -7.3 -0.1 99 0.0 N 28 50 15 27 - - 2.2
16/04:30pm 0.0 -6.2 -0.1 99 0.0 N 22 44 12 24 - - 2.0
16/04:00pm 0.0 -4.1 -0.1 99 0.0 NNW 11 33 6 18 - - 2.0
16/03:30pm -0.1 -6.3 -0.2 99 0.0 NNW 22 52 12 28 - - 2.0
16/03:14pm -0.1 -5.0 -0.2 99 0.0 NW 15 57 8 31 - - 2.0
16/03:00pm -0.1 -5.0 -0.2 99 0.0 NNW 15 50 8 27 - - 2.0
16/02:30pm -0.2 -4.3 -0.3 99 0.0 NNW 11 32 6 17 - - 1.8
16/02:00pm -0.2 -5.1 -0.3 99 0.0 NW 15 46 8 25 - - 1.8
16/01:30pm -0.3 -3.7 -0.4 99 0.0 NW 7 32 4 17 - - 1.8
16/01:00pm -0.6 -4.8 -0.7 99 0.0 NW 11 28 6 15 - - 1.8
16/12:30pm -0.7 -6.6 -0.8 99 0.0 WNW 20 43 11 23 - - 1.8
16/12:07pm -0.7 -8.1 -0.8 99 0.0 WNW 28 52 15 28 - - 1.8
16/12:00pm -0.4 -5.3 -0.5 99 0.0 NW 15 57 8 31 - - 1.8
16/11:33am -0.5 -7.1 -0.6 99 0.0 WNW 24 57 13 31 - - 0.8
16/11:30am -0.5 -7.5 -0.6 99 0.0 WNW 26 52 14 28 - - 0.6
16/11:00am -0.6 -9.3 -0.7 99 0.0 W 35 59 19 32 - - 0.6
16/10:30am -1.0 -9.2 -1.1 99 0.0 WNW 32 52 17 28 - - 0.4
16/10:00am -0.9 -9.7 -1.0 99 0.0 WNW 35 72 19 39 - - 0.4
16/09:30am -0.5 -9.6 -0.6 99 0.0 WNW 37 72 20 39 - - 0.2
16/09:00am -0.4 -9.9 -0.5 99 0.0 WNW 39 67 21 36 - - 89.8
16/08:34am -0.2 -7.5 -0.3 99 0.0 WNW 28 63 15 34 - - 89.2
16/08:30am 0.0 -5.8 -0.1 99 0.0 WNW 20 57 11 31 - - 89.0
16/08:24am 0.0 -4.5 -0.1 99 0.0 NW 13 48 7 26 - - 88.8
16/08:17am 0.0 -5.6 -0.1 99 0.0 NNW 19 59 10 32 - - 88.4
16/08:08am 0.0 -7.3 -0.1 99 0.0 NNW 28 76 15 41 - - 87.2
16/08:07am 0.0 -6.6 -0.1 99 0.0 N 24 76 13 41 - - 87.2
16/08:00am 0.0 -4.1 -0.1 99 0.0 N 11 48 6 26 - - 86.4
16/07:30am -0.1 -7.4 -0.2 99 0.0 WNW 28 70 15 38 - - 83.6
16/07:13am -0.1 -7.4 -0.2 99 0.0 WNW 28 63 15 34 - - 82.6
16/07:00am 0.0 -6.6 -0.1 99 0.0 WNW 24 72 13 39 - - 82.6
16/06:53am 0.0 -6.2 -0.1 99 0.0 NW 22 72 12 39 - - 82.2
16/06:30am -0.1 -7.1 -0.2 99 0.0 WNW 26 67 14 36 - - 80.6
16/06:28am -0.1 -7.8 -0.2 99 0.0 WNW 30 67 16 36 - - 80.6
16/06:23am -0.1 -9.1 -0.2 99 0.0 WNW 37 78 20 42 - - 80.6
16/06:20am -0.1 -8.4 -0.2 99 0.0 WNW 33 78 18 42 - - 80.4
16/06:14am 0.0 -6.9 -0.1 99 0.0 WNW 26 63 14 34 - - 79.6
16/06:00am 0.0 -5.8 -0.1 99 0.0 WNW 20 56 11 30 - - 79.2
16/05:43am 0.2 -5.4 0.1 99 0.0 NW 19 50 10 27 - - 79.2
16/05:30am 0.3 -4.9 0.2 99 0.0 NW 17 37 9 20 - - 79.2
16/05:00am 0.4 -3.6 0.3 99 0.0 NW 11 37 6 20 - - 79.2
16/04:30am 0.4 -3.6 0.3 99 0.0 NNW 11 39 6 21 - - 79.2
16/04:07am 1.3 -3.0 1.2 99 0.0 NW 13 59 7 32 - - 79.0
16/04:00am 1.4 -3.2 1.3 99 0.0 NW 15 48 8 26 - - 78.6
16/03:39am 1.5 -7.7 1.4 99 0.0 WNW 39 85 21 46 - - 77.0
16/03:31am 2.1 -2.8 2.0 99 0.0 NW 17 69 9 37 - - 76.4
16/03:30am 2.5 -2.0 2.4 99 0.0 NW 15 69 8 37 - - 76.4
16/03:11am 2.8 -3.3 2.7 99 0.0 N 24 57 13 31 - - 74.0
16/03:00am 2.7 0.8 2.6 99 0.0 NNE 2 28 1 15 - - 72.8
16/02:30am 2.9 -0.7 2.8 99 0.0 NNW 11 39 6 21 - - 69.6
16/02:15am 2.6 -1.1 2.5 99 0.0 WNW 11 52 6 28 - - 67.4
16/02:00am 2.8 -2.9 2.7 99 0.0 NNW 22 54 12 29 - - 65.2
16/01:59am 2.7 -3.8 2.6 99 0.0 NNW 26 54 14 29 - - 65.2
16/01:30am 3.3 -6.3 3.2 99 0.0 N 43 82 23 44 - - 64.8
16/01:00am 3.5 -8.2 3.4 99 0.0 NNW 54 87 29 47 - - 63.2
16/12:30am 3.5 -8.8 3.4 99 0.0 NNW 57 104 31 56 - - 61.4
16/12:00am 3.8 -10.3 3.7 99 0.0 NNW 67 102 36 55 - - 60.2
 
Date/Time
EST
Temp
°C
App
Temp
°C
Dew
Point
°C
Rel
Hum
%
Delta-T
°C
Wind Press
QNH
hPa
Press
MSL
hPa
Rain since
9am
mm
Dir  Spd
km/h
Gust
km/h
Spd
kts
Gust
kts
15/11:58pm 3.9 -10.2 3.8 99 0.0 NNW 67 102 36 55 - - 60.2
15/11:30pm 3.9 -7.7 3.8 99 0.0 NNW 54 85 29 46 - - 58.4
15/11:00pm 3.7 -8.5 3.6 99 0.0 NNW 57 93 31 50 - - 57.0
15/10:50pm 4.0 -8.2 3.9 99 0.0 NNW 57 89 31 48 - - 56.6
15/10:30pm 3.9 -11.1 3.8 99 0.0 NNW 72 107 39 58 - - 55.6
15/10:00pm 3.6 -10.9 3.5 99 0.0 NNW 69 100 37 54 - - 55.0
15/09:30pm 4.0 -9.7 3.9 99 0.0 NNW 65 96 35 52 - - 54.4
15/09:00pm 4.1 -9.6 4.0 99 0.0 NNW 65 91 35 49 - - 54.2
15/08:30pm 4.3 -8.2 4.2 99 0.0 N 59 98 32 53 - - 53.4
15/08:21pm 4.4 -7.5 4.3 99 0.0 N 56 96 30 52 - - 53.0
15/08:00pm 4.4 -5.2 4.3 99 0.0 N 44 78 24 42 - - 51.6
15/07:46pm 4.4 -3.9 4.3 99 0.0 N 37 72 20 39 - - 50.4
15/07:30pm 4.4 -1.8 4.3 99 0.0 N 26 52 14 28 - - 48.4
15/07:00pm 4.4 -3.1 4.3 99 0.0 N 33 65 18 35 - - 44.6
15/06:46pm 4.2 0.8 4.1 99 0.0 NNW 11 50 6 27 - - 42.4
15/06:30pm 4.3 -1.2 4.2 99 0.0 NNW 22 50 12 27 - - 40.0
15/06:00pm 4.3 -3.6 4.2 99 0.0 NNW 35 65 19 35 - - 35.8
15/05:30pm 4.2 -4.9 4.1 99 0.0 N 41 69 22 37 - - 32.6
15/05:00pm 4.1 -5.4 4.0 99 0.0 NNW 43 72 23 39 - - 29.4
15/04:30pm 4.1 -5.4 4.0 99 0.0 NNW 43 70 23 38 - - 26.6
15/04:00pm 4.2 -4.9 4.1 99 0.0 NNW 41 70 22 38 - - 24.6
15/03:30pm 4.2 -5.8 4.1 99 0.0 N 46 76 25 41 - - 22.0
15/03:00pm 4.2 -3.7 4.1 99 0.0 NNW 35 61 19 33 - - 19.4
15/02:30pm 4.4 -3.5 4.3 99 0.0 NNW 35 70 19 38 - - 16.2
15/02:00pm 4.3 -3.1 4.2 99 0.0 N 32 61 17 33 - - 13.4
15/01:41pm 4.1 -2.5 4.0 99 0.0 N 28 48 15 26 - - 11.8
15/01:30pm 4.3 -1.5 4.2 99 0.0 NNW 24 43 13 23 - - 10.8
15/01:00pm 4.1 -4.6 4.0 99 0.0 N 39 67 21 36 - - 8.8
15/12:30pm 3.9 -5.2 3.8 99 0.0 NNW 41 59 22 32 - - 6.8
15/12:07pm 4.0 -5.1 3.9 99 0.0 N 41 63 22 34 - - 6.2
15/12:00pm 3.7 -5.9 3.6 99 0.0 NNW 43 57 23 31 - - 6.0
15/11:30am 4.4 -5.6 4.3 99 0.0 NNW 46 76 25 41 - - 2.8
15/11:00am 3.5 -6.7 3.4 99 0.0 N 46 72 25 39 - - 1.2
15/10:30am 3.6 -6.0 3.5 99 0.0 N 43 69 23 37 - - 0.6
15/10:00am 3.5 -6.3 3.4 99 0.0 N 44 69 24 37 - - 0.4
15/09:30am 3.4 -6.2 3.3 99 0.0 NNW 43 61 23 33 - - 0.0
15/09:00am 3.4 -6.2 3.3 99 0.0 N 43 65 23 35 - - 8.4
15/08:30am 3.6 -6.5 3.5 99 0.0 NNW 46 65 25 35 - - 7.8
15/08:00am 3.7 -6.8 3.6 99 0.0 NNW 48 69 26 37 - - 6.0
15/07:48am 3.1 -6.6 3.0 99 0.0 NNW 43 61 23 33 - - 5.4
15/07:30am 2.8 -5.8 2.7 99 0.0 N 37 52 20 28 - - 3.8

Other Formats:

Comma delimited format used in spreadsheet applications
http://www.bom.gov.au/fwo/IDV60801/IDV60801.94894.axf

JavaScript Object Notation format (JSON) in row-major order
http://www.bom.gov.au/fwo/IDV60801/IDV60801.94894.json